Time,TemperatureF,DewpointF,PressureIn,WindDirection,WindDirectionDegrees,WindSpeedMPH,WindSpeedGustMPH,Humidity,HourlyPrecipIn,Conditions,Clouds,dailyrainin,SoftwareType,DateUTC
2013-02-20 00:06:00,42.9,36.5,29.76,SSW,211,4.0,7.0,78,0.00,,,0.00,Wunderground v.1.15,2013-02-20 08:06:00,
2013-02-20 00:12:00,42.7,36.3,29.76,SW,220,4.0,4.0,78,0.00,,,0.00,Wunderground v.1.15,2013-02-20 08:12:00,
2013-02-20 00:18:00,42.8,36.1,29.76,WSW,242,6.0,7.0,77,0.00,,,0.00,Wunderground v.1.15,2013-02-20 08:18:00,
2013-02-20 00:24:00,42.8,36.1,29.76,SW,231,6.0,7.0,77,0.00,,,0.00,Wunderground v.1.15,2013-02-20 08:24:00,
2013-02-20 00:30:00,42.9,35.9,29.76,WSW,238,6.0,6.0,76,0.00,,,0.00,Wunderground v.1.15,2013-02-20 08:30:00,
2013-02-20 00:36:00,42.9,35.5,29.76,NW,304,6.0,11.0,75,0.00,,,0.00,Wunderground v.1.15,2013-02-20 08:36:00,
2013-02-20 00:42:00,42.6,35.2,29.76,WSW,240,3.0,11.0,75,0.00,,,0.00,Wunderground v.1.15,2013-02-20 08:42:00,
2013-02-20 00:48:00,42.5,34.8,29.76,South,180,3.0,11.0,74,0.00,,,0.00,Wunderground v.1.15,2013-02-20 08:48:00,
2013-02-20 00:54:00,42.4,34.7,29.75,WSW,242,3.0,11.0,74,0.00,,,0.00,Wunderground v.1.15,2013-02-20 08:54:00,
2013-02-20 01:00:00,42.3,34.3,29.76,SW,214,3.0,3.0,73,0.00,,,0.00,Wunderground v.1.15,2013-02-20 09:00:00,
2013-02-20 01:06:00,42.3,33.9,29.76,SW,235,4.0,5.0,72,0.00,,,0.00,Wunderground v.1.15,2013-02-20 09:06:00,
2013-02-20 01:12:00,42.3,33.2,29.76,SW,227,4.0,4.0,70,0.00,,,0.00,Wunderground v.1.15,2013-02-20 09:12:00,
2013-02-20 01:18:00,42.2,33.5,29.76,WSW,240,3.0,4.0,71,0.00,,,0.00,Wunderground v.1.15,2013-02-20 09:18:00,
2013-02-20 01:24:00,42.0,32.9,29.76,West,259,3.0,5.0,70,0.00,,,0.00,Wunderground v.1.15,2013-02-20 09:24:00,
2013-02-20 01:30:00,41.8,33.1,29.76,SW,226,3.0,3.0,71,0.00,,,0.00,Wunderground v.1.15,2013-02-20 09:30:00,
2013-02-20 01:36:00,41.8,33.1,29.76,WSW,254,3.0,12.0,71,0.00,,,0.00,Wunderground v.1.15,2013-02-20 09:36:00,
2013-02-20 01:42:00,41.9,32.8,29.76,WSW,256,3.0,12.0,70,0.00,,,0.00,Wunderground v.1.15,2013-02-20 09:42:00,
2013-02-20 01:48:00,41.5,32.4,29.75,SW,221,2.0,12.0,70,0.00,,,0.00,Wunderground v.1.15,2013-02-20 09:48:00,
2013-02-20 01:54:00,41.3,32.6,29.75,WSW,238,1.0,12.0,71,0.00,,,0.00,Wunderground v.1.15,2013-02-20 09:54:00,
2013-02-20 02:00:00,41.1,32.1,29.75,West,269,2.0,2.0,70,0.00,,,0.00,Wunderground v.1.15,2013-02-20 10:00:00,
2013-02-20 02:06:00,41.3,31.9,29.75,WSW,250,3.0,4.0,69,0.00,,,0.00,Wunderground v.1.15,2013-02-20 10:06:00,
2013-02-20 02:12:00,41.2,32.9,29.76,WSW,249,4.0,4.0,72,0.00,,,0.00,Wunderground v.1.15,2013-02-20 10:12:00,
2013-02-20 02:18:00,40.8,33.2,29.76,SW,228,4.0,5.0,74,0.00,,,0.00,Wunderground v.1.15,2013-02-20 10:18:00,
2013-02-20 02:24:00,40.9,33.6,29.76,SW,233,4.0,5.0,75,0.00,,,0.00,Wunderground v.1.15,2013-02-20 10:24:00,
2013-02-20 02:30:00,40.8,33.5,29.76,SW,225,4.0,4.0,75,0.00,,,0.00,Wunderground v.1.15,2013-02-20 10:30:00,
2013-02-20 02:36:00,40.3,33.7,29.76,SW,216,3.0,8.0,77,0.00,,,0.00,Wunderground v.1.15,2013-02-20 10:36:00,
2013-02-20 02:42:00,40.4,33.8,29.76,SW,226,4.0,8.0,77,0.00,,,0.00,Wunderground v.1.15,2013-02-20 10:42:00,
2013-02-20 02:48:00,40.8,33.8,29.76,SW,228,4.0,8.0,76,0.00,,,0.00,Wunderground v.1.15,2013-02-20 10:48:00,
2013-02-20 02:54:00,40.6,33.6,29.76,SW,221,4.0,8.0,76,0.00,,,0.00,Wunderground v.1.15,2013-02-20 10:54:00,
2013-02-20 03:00:00,40.3,33.7,29.76,SW,222,4.0,4.0,77,0.00,,,0.00,Wunderground v.1.15,2013-02-20 11:00:00,
2013-02-20 03:06:00,40.4,34.1,29.76,SW,222,5.0,6.0,78,0.00,,,0.00,Wunderground v.1.15,2013-02-20 11:06:00,
2013-02-20 03:12:00,40.8,34.1,29.76,WSW,239,5.0,5.0,77,0.00,,,0.00,Wunderground v.1.15,2013-02-20 11:12:00,
2013-02-20 03:18:00,40.6,34.0,29.75,SSW,207,4.0,5.0,77,0.00,,,0.00,Wunderground v.1.15,2013-02-20 11:18:00,
2013-02-20 03:24:00,40.7,33.7,29.75,SW,223,5.0,7.0,76,0.00,,,0.00,Wunderground v.1.15,2013-02-20 11:24:00,
2013-02-20 03:30:00,40.9,33.9,29.76,SW,231,4.0,5.0,76,0.00,,,0.00,Wunderground v.1.15,2013-02-20 11:30:00,
2013-02-20 03:36:00,40.9,33.9,29.76,SW,236,3.0,9.0,76,0.00,,,0.00,Wunderground v.1.15,2013-02-20 11:36:00,
2013-02-20 03:42:00,40.8,33.5,29.76,SW,229,2.0,9.0,75,0.00,,,0.00,Wunderground v.1.15,2013-02-20 11:42:00,
2013-02-20 03:48:00,40.5,33.2,29.76,West,274,1.0,9.0,75,0.00,,,0.00,Wunderground v.1.15,2013-02-20 11:48:00,
2013-02-20 03:54:00,40.7,32.0,29.77,WSW,238,1.0,9.0,71,0.00,,,0.00,Wunderground v.1.15,2013-02-20 11:54:00,
2013-02-20 04:00:00,40.6,31.6,29.77,NW,326,1.0,1.0,70,0.00,,,0.00,Wunderground v.1.15,2013-02-20 12:00:00,
2013-02-20 04:06:00,40.5,30.8,29.77,WSW,253,0.0,1.0,68,0.00,,,0.00,Wunderground v.1.15,2013-02-20 12:06:00,
2013-02-20 04:12:00,40.3,30.9,29.76,WSW,245,0.0,0.0,69,0.00,,,0.00,Wunderground v.1.15,2013-02-20 12:12:00,
2013-02-20 04:18:00,39.6,30.6,29.77,WSW,245,0.0,0.0,70,0.00,,,0.00,Wunderground v.1.15,2013-02-20 12:18:00,
2013-02-20 04:24:00,39.2,30.2,29.77,SW,228,0.0,0.0,70,0.00,,,0.00,Wunderground v.1.15,2013-02-20 12:24:00,
2013-02-20 04:30:00,39.2,30.2,29.78,WSW,243,0.0,0.0,70,0.00,,,0.00,Wunderground v.1.15,2013-02-20 12:30:00,
2013-02-20 04:36:00,39.1,29.8,29.77,SW,231,0.0,12.0,69,0.00,,,0.00,Wunderground v.1.15,2013-02-20 12:36:00,
2013-02-20 04:42:00,39.1,30.1,29.77,SSW,195,1.0,12.0,70,0.00,,,0.00,Wunderground v.1.15,2013-02-20 12:42:00,
2013-02-20 04:48:00,38.7,29.8,29.78,SE,145,0.0,12.0,70,0.00,,,0.00,Wunderground v.1.15,2013-02-20 12:48:00,
2013-02-20 04:54:00,38.6,29.7,29.78,SW,225,1.0,12.0,70,0.00,,,0.00,Wunderground v.1.15,2013-02-20 12:54:00,
2013-02-20 05:00:00,38.9,29.6,29.78,SW,236,1.0,1.0,69,0.00,,,0.00,Wunderground v.1.15,2013-02-20 13:00:00,
2013-02-20 05:06:00,38.7,29.4,29.78,SSE,156,1.0,2.0,69,0.00,,,0.00,Wunderground v.1.15,2013-02-20 13:06:00,
2013-02-20 05:12:00,38.3,29.0,29.78,SSW,197,1.0,1.0,69,0.00,,,0.00,Wunderground v.1.15,2013-02-20 13:12:00,
2013-02-20 05:18:00,37.9,29.0,29.79,SW,217,0.0,1.0,70,0.00,,,0.00,Wunderground v.1.15,2013-02-20 13:18:00,
2013-02-20 05:24:00,37.7,29.1,29.78,SW,217,1.0,1.0,71,0.00,,,0.00,Wunderground v.1.15,2013-02-20 13:24:00,
2013-02-20 05:30:00,37.5,29.3,29.77,SSE,147,1.0,1.0,72,0.00,,,0.00,Wunderground v.1.15,2013-02-20 13:30:00,
2013-02-20 05:36:00,37.9,29.0,29.77,WSW,243,2.0,5.0,70,0.00,,,0.00,Wunderground v.1.15,2013-02-20 13:36:00,
2013-02-20 05:42:00,38.2,28.6,29.78,WSW,252,2.0,5.0,68,0.00,,,0.00,Wunderground v.1.15,2013-02-20 13:42:00,
2013-02-20 05:48:00,38.1,28.5,29.78,SW,228,1.0,5.0,68,0.00,,,0.00,Wunderground v.1.15,2013-02-20 13:48:00,
2013-02-20 05:54:00,37.9,29.0,29.78,WSW,243,1.0,1.0,70,0.00,,,0.00,Wunderground v.1.15,2013-02-20 13:54:00,
2013-02-20 06:00:00,37.5,28.6,29.78,SW,224,0.0,0.0,70,0.00,,,0.00,Wunderground v.1.15,2013-02-20 14:00:00,
2013-02-20 06:06:00,37.3,28.4,29.78,SSE,156,0.0,1.0,70,0.00,,,0.00,Wunderground v.1.15,2013-02-20 14:06:00,
2013-02-20 06:12:00,37.0,28.5,29.79,SSE,167,0.0,0.0,71,0.00,,,0.00,Wunderground v.1.15,2013-02-20 14:12:00,
2013-02-20 06:18:00,36.9,28.4,29.79,SSE,155,0.0,0.0,71,0.00,,,0.00,Wunderground v.1.15,2013-02-20 14:18:00,
2013-02-20 06:24:00,36.8,28.3,29.79,SSE,162,0.0,0.0,71,0.00,,,0.00,Wunderground v.1.15,2013-02-20 14:24:00,
2013-02-20 06:30:00,36.7,28.2,29.80,SSE,165,0.0,0.0,71,0.00,,,0.00,Wunderground v.1.15,2013-02-20 14:30:00,
2013-02-20 06:36:00,36.6,28.1,29.80,WSW,244,0.0,4.0,71,0.00,,,0.00,Wunderground v.1.15,2013-02-20 14:36:00,
2013-02-20 06:42:00,36.8,28.3,29.80,SSW,211,0.0,4.0,71,0.00,,,0.00,Wunderground v.1.15,2013-02-20 14:42:00,
2013-02-20 06:48:00,37.0,28.5,29.80,WSW,250,0.0,4.0,71,0.00,,,0.00,Wunderground v.1.15,2013-02-20 14:48:00,
2013-02-20 06:54:00,37.3,28.8,29.80,SW,221,1.0,4.0,71,0.00,,,0.00,Wunderground v.1.15,2013-02-20 14:54:00,
2013-02-20 07:00:00,37.3,28.8,29.80,WSW,255,2.0,2.0,71,0.00,,,0.00,Wunderground v.1.15,2013-02-20 15:00:00,
2013-02-20 07:06:00,37.4,28.9,29.81,WSW,257,1.0,2.0,71,0.00,,,0.00,Wunderground v.1.15,2013-02-20 15:06:00,
2013-02-20 07:12:00,37.7,29.5,29.81,SW,229,1.0,2.0,72,0.00,,,0.00,Wunderground v.1.15,2013-02-20 15:12:00,
2013-02-20 07:18:00,38.2,30.0,29.81,West,261,2.0,3.0,72,0.00,,,0.00,Wunderground v.1.15,2013-02-20 15:18:00,
2013-02-20 07:24:00,38.5,30.3,29.81,SW,227,2.0,3.0,72,0.00,,,0.00,Wunderground v.1.15,2013-02-20 15:24:00,
2013-02-20 07:30:00,38.9,30.6,29.82,SW,221,2.0,2.0,72,0.00,,,0.00,Wunderground v.1.15,2013-02-20 15:30:00,
2013-02-20 07:36:00,39.3,31.0,29.82,WSW,238,2.0,2.0,72,0.00,,,0.00,Wunderground v.1.15,2013-02-20 15:36:00,
2013-02-20 07:42:00,39.7,31.1,29.82,SW,229,2.0,3.0,71,0.00,,,0.00,Wunderground v.1.15,2013-02-20 15:42:00,
2013-02-20 07:48:00,40.1,31.1,29.82,SW,229,2.0,3.0,70,0.00,,,0.00,Wunderground v.1.15,2013-02-20 15:48:00,
2013-02-20 07:54:00,40.9,31.5,29.82,SW,233,2.0,2.0,69,0.00,,,0.00,Wunderground v.1.15,2013-02-20 15:54:00,
2013-02-20 08:00:00,42.0,31.8,29.83,SW,214,3.0,3.0,67,0.00,,,0.00,Wunderground v.1.15,2013-02-20 16:00:00,
2013-02-20 08:06:00,42.9,32.3,29.83,SW,231,2.0,3.0,66,0.00,,,0.00,Wunderground v.1.15,2013-02-20 16:06:00,
2013-02-20 08:12:00,43.3,32.3,29.83,SW,222,2.0,3.0,65,0.00,,,0.00,Wunderground v.1.15,2013-02-20 16:12:00,
2013-02-20 08:18:00,43.6,31.4,29.83,WSW,243,3.0,5.0,62,0.00,,,0.00,Wunderground v.1.15,2013-02-20 16:18:00,
2013-02-20 08:24:00,43.5,31.3,29.84,WSW,254,4.0,4.0,62,0.00,,,0.00,Wunderground v.1.15,2013-02-20 16:24:00,
2013-02-20 08:30:00,43.5,31.7,29.84,WSW,238,3.0,3.0,63,0.00,,,0.00,Wunderground v.1.15,2013-02-20 16:30:00,
2013-02-20 08:36:00,43.9,32.5,29.84,SW,233,3.0,9.0,64,0.00,,,0.00,Wunderground v.1.15,2013-02-20 16:36:00,
2013-02-20 08:42:00,44.4,32.2,29.84,WSW,239,4.0,5.0,62,0.00,,,0.00,Wunderground v.1.15,2013-02-20 16:42:00,
2013-02-20 08:48:00,45.2,32.5,29.84,SSW,208,4.0,5.0,61,0.00,,,0.00,Wunderground v.1.15,2013-02-20 16:48:00,
2013-02-20 08:54:00,45.9,33.2,29.84,SW,219,3.0,5.0,61,0.00,,,0.00,Wunderground v.1.15,2013-02-20 16:54:00,
2013-02-20 09:00:00,46.7,34.0,29.85,WSW,246,2.0,2.0,61,0.00,,,0.00,Wunderground v.1.15,2013-02-20 17:00:00,
2013-02-20 09:06:00,47.1,33.1,29.85,SW,223,2.0,2.0,58,0.00,,,0.00,Wunderground v.1.15,2013-02-20 17:06:00,
2013-02-20 09:12:00,47.6,34.0,29.85,SW,231,2.0,4.0,59,0.00,,,0.00,Wunderground v.1.15,2013-02-20 17:12:00,
2013-02-20 09:18:00,48.1,34.9,29.86,SSW,210,1.0,4.0,60,0.00,,,0.00,Wunderground v.1.15,2013-02-20 17:18:00,
2013-02-20 09:24:00,48.3,34.2,29.86,WSW,256,1.0,3.0,58,0.00,,,0.00,Wunderground v.1.15,2013-02-20 17:24:00,
2013-02-20 09:30:00,48.4,33.0,29.86,WSW,247,2.0,2.0,55,0.00,,,0.00,Wunderground v.1.15,2013-02-20 17:30:00,
2013-02-20 09:36:00,48.8,33.8,29.86,SW,214,2.0,8.0,56,0.00,,,0.00,Wunderground v.1.15,2013-02-20 17:36:00,
2013-02-20 09:42:00,49.1,33.6,29.86,West,262,3.0,8.0,55,0.00,,,0.00,Wunderground v.1.15,2013-02-20 17:42:00,
2013-02-20 09:48:00,48.9,33.4,29.87,SW,229,4.0,8.0,55,0.00,,,0.00,Wunderground v.1.15,2013-02-20 17:48:00,
2013-02-20 09:54:00,48.9,33.9,29.87,SW,225,4.0,8.0,56,0.00,,,0.00,Wunderground v.1.15,2013-02-20 17:54:00,
2013-02-20 10:00:00,49.3,34.3,29.87,SW,229,3.0,3.0,56,0.00,,,0.00,Wunderground v.1.15,2013-02-20 18:00:00,
2013-02-20 10:06:00,49.6,34.5,29.87,WSW,249,3.0,3.0,56,0.00,,,0.00,Wunderground v.1.15,2013-02-20 18:06:00,
2013-02-20 10:12:00,50.1,34.1,29.88,SW,226,2.0,4.0,54,0.00,,,0.00,Wunderground v.1.15,2013-02-20 18:12:00,
2013-02-20 10:18:00,50.2,31.8,29.88,West,280,3.0,5.0,49,0.00,,,0.00,Wunderground v.1.15,2013-02-20 18:18:00,
2013-02-20 10:24:00,50.7,34.6,29.89,WSW,244,2.0,4.0,54,0.00,,,0.00,Wunderground v.1.15,2013-02-20 18:24:00,
2013-02-20 10:30:00,50.8,33.3,29.89,SW,226,3.0,3.0,51,0.00,,,0.00,Wunderground v.1.15,2013-02-20 18:30:00,
2013-02-20 10:36:00,51.2,33.7,29.89,SW,225,3.0,7.0,51,0.00,,,0.00,Wunderground v.1.15,2013-02-20 18:36:00,
2013-02-20 10:42:00,51.5,34.4,29.90,SW,225,2.0,7.0,52,0.00,,,0.00,Wunderground v.1.15,2013-02-20 18:42:00,
2013-02-20 10:48:00,52.1,35.5,29.90,WSW,248,2.0,7.0,53,0.00,,,0.00,Wunderground v.1.15,2013-02-20 18:48:00,
2013-02-20 10:54:00,52.5,34.9,29.90,SW,225,2.0,7.0,51,0.00,,,0.00,Wunderground v.1.15,2013-02-20 18:54:00,
2013-02-20 11:00:00,52.6,34.0,29.90,West,259,2.0,2.0,49,0.00,,,0.00,Wunderground v.1.15,2013-02-20 19:00:00,
2013-02-20 11:06:00,52.7,35.6,29.90,West,259,3.0,8.0,52,0.00,,,0.00,Wunderground v.1.15,2013-02-20 19:06:00,
2013-02-20 11:12:00,53.1,36.9,29.90,SW,221,3.0,5.0,54,0.00,,,0.00,Wunderground v.1.15,2013-02-20 19:12:00,
2013-02-20 11:18:00,53.6,37.8,29.89,SW,236,4.0,8.0,55,0.00,,,0.00,Wunderground v.1.15,2013-02-20 19:18:00,
2013-02-20 11:24:00,53.2,35.0,29.90,SW,216,5.0,5.0,50,0.00,,,0.00,Wunderground v.1.15,2013-02-20 19:24:00,
2013-02-20 11:30:00,53.2,36.5,29.90,West,264,3.0,5.0,53,0.00,,,0.00,Wunderground v.1.15,2013-02-20 19:30:00,
2013-02-20 11:36:00,53.2,37.0,29.89,West,260,3.0,9.0,54,0.00,,,0.00,Wunderground v.1.15,2013-02-20 19:36:00,
2013-02-20 11:42:00,53.4,36.2,29.89,WSW,253,4.0,9.0,52,0.00,,,0.00,Wunderground v.1.15,2013-02-20 19:42:00,
2013-02-20 11:48:00,54.0,36.3,29.89,WSW,240,3.0,9.0,51,0.00,,,0.00,Wunderground v.1.15,2013-02-20 19:48:00,
2013-02-20 11:54:00,54.1,37.3,29.89,SW,217,3.0,9.0,53,0.00,,,0.00,Wunderground v.1.15,2013-02-20 19:54:00,
2013-02-20 12:00:00,54.5,37.2,29.90,West,259,2.0,4.0,52,0.00,,,0.00,Wunderground v.1.15,2013-02-20 20:00:00,
2013-02-20 12:06:00,54.7,37.4,29.89,West,276,2.0,4.0,52,0.00,,,0.00,Wunderground v.1.15,2013-02-20 20:06:00,
2013-02-20 12:12:00,55.3,38.9,29.89,SSE,156,1.0,2.0,54,0.00,,,0.00,Wunderground v.1.15,2013-02-20 20:12:00,
2013-02-20 12:18:00,55.4,36.5,29.89,West,265,2.0,4.0,49,0.00,,,0.00,Wunderground v.1.15,2013-02-20 20:18:00,
2013-02-20 12:24:00,55.5,36.1,29.88,WSW,248,2.0,4.0,48,0.00,,,0.00,Wunderground v.1.15,2013-02-20 20:24:00,
2013-02-20 12:30:00,55.5,36.1,29.88,SW,231,3.0,3.0,48,0.00,,,0.00,Wunderground v.1.15,2013-02-20 20:30:00,
2013-02-20 12:36:00,55.7,35.8,29.88,SW,231,2.0,10.0,47,0.00,,,0.00,Wunderground v.1.15,2013-02-20 20:36:00,
2013-02-20 12:42:00,55.9,35.4,29.88,SW,233,2.0,10.0,46,0.00,,,0.00,Wunderground v.1.15,2013-02-20 20:42:00,
2013-02-20 12:48:00,56.5,35.4,29.88,SW,221,2.0,10.0,45,0.00,,,0.00,Wunderground v.1.15,2013-02-20 20:48:00,
2013-02-20 12:54:00,56.9,35.8,29.88,SW,226,2.0,10.0,45,0.00,,,0.00,Wunderground v.1.15,2013-02-20 20:54:00,
2013-02-20 13:00:00,56.7,36.1,29.88,WSW,253,3.0,3.0,46,0.00,,,0.00,Wunderground v.1.15,2013-02-20 21:00:00,
2013-02-20 13:06:00,56.7,36.1,29.88,SW,226,2.0,3.0,46,0.00,,,0.00,Wunderground v.1.15,2013-02-20 21:06:00,
2013-02-20 13:12:00,57.0,35.9,29.87,SW,231,2.0,3.0,45,0.00,,,0.00,Wunderground v.1.15,2013-02-20 21:12:00,
2013-02-20 13:18:00,57.0,36.4,29.87,South,174,2.0,3.0,46,0.00,,,0.00,Wunderground v.1.15,2013-02-20 21:18:00,
2013-02-20 13:24:00,57.4,35.6,29.86,SW,231,1.0,2.0,44,0.00,,,0.00,Wunderground v.1.15,2013-02-20 21:24:00,
2013-02-20 13:30:00,57.5,36.9,29.87,SW,222,3.0,6.0,46,0.00,,,0.00,Wunderground v.1.15,2013-02-20 21:30:00,
2013-02-20 13:36:00,57.2,37.7,29.87,WSW,250,3.0,8.0,48,0.00,,,0.00,Wunderground v.1.15,2013-02-20 21:36:00,
2013-02-20 13:42:00,57.8,37.1,29.87,SW,233,2.0,8.0,46,0.00,,,0.00,Wunderground v.1.15,2013-02-20 21:42:00,
2013-02-20 13:48:00,58.0,37.9,29.87,SW,215,2.0,8.0,47,0.00,,,0.00,Wunderground v.1.15,2013-02-20 21:48:00,
2013-02-20 13:54:00,57.8,36.6,29.87,WSW,253,2.0,8.0,45,0.00,,,0.00,Wunderground v.1.15,2013-02-20 21:54:00,
2013-02-20 14:00:00,57.6,37.0,29.87,SW,221,3.0,3.0,46,0.00,,,0.00,Wunderground v.1.15,2013-02-20 22:00:00,
2013-02-20 14:06:00,57.4,36.8,29.87,SW,217,4.0,9.0,46,0.00,,,0.00,Wunderground v.1.15,2013-02-20 22:06:00,
2013-02-20 14:12:00,57.7,38.7,29.87,WSW,255,4.0,6.0,49,0.00,,,0.00,Wunderground v.1.15,2013-02-20 22:12:00,
2013-02-20 14:18:00,57.9,38.8,29.87,SSW,211,4.0,6.0,49,0.00,,,0.00,Wunderground v.1.15,2013-02-20 22:18:00,
2013-02-20 14:24:00,57.4,41.4,29.87,SW,231,4.0,6.0,55,0.00,,,0.00,Wunderground v.1.15,2013-02-20 22:24:00,
2013-02-20 14:30:00,57.1,39.6,29.87,SW,236,5.0,5.0,52,0.00,,,0.00,Wunderground v.1.15,2013-02-20 22:30:00,
2013-02-20 14:36:00,57.1,38.6,29.88,WSW,252,4.0,9.0,50,0.00,,,0.00,Wunderground v.1.15,2013-02-20 22:36:00,
2013-02-20 14:42:00,57.2,39.7,29.88,SW,229,5.0,9.0,52,0.00,,,0.00,Wunderground v.1.15,2013-02-20 22:42:00,
2013-02-20 14:48:00,57.3,39.3,29.88,SW,231,5.0,9.0,51,0.00,,,0.00,Wunderground v.1.15,2013-02-20 22:48:00,
2013-02-20 14:54:00,57.3,40.8,29.88,South,187,4.0,9.0,54,0.00,,,0.00,Wunderground v.1.15,2013-02-20 22:54:00,
2013-02-20 15:00:00,56.8,41.7,29.89,WSW,249,5.0,5.0,57,0.00,,,0.00,Wunderground v.1.15,2013-02-20 23:00:00,
2013-02-20 15:06:00,56.6,41.5,29.89,West,281,6.0,9.0,57,0.00,,,0.00,Wunderground v.1.15,2013-02-20 23:06:00,
2013-02-20 15:12:00,56.7,42.1,29.89,SW,231,6.0,9.0,58,0.00,,,0.00,Wunderground v.1.15,2013-02-20 23:12:00,
2013-02-20 15:18:00,56.3,42.1,29.89,WSW,245,7.0,10.0,59,0.00,,,0.00,Wunderground v.1.15,2013-02-20 23:18:00,
2013-02-20 15:24:00,56.6,43.3,29.88,SW,226,6.0,8.0,61,0.00,,,0.00,Wunderground v.1.15,2013-02-20 23:24:00,
2013-02-20 15:30:00,56.3,43.9,29.88,WSW,246,6.0,6.0,63,0.00,,,0.00,Wunderground v.1.15,2013-02-20 23:30:00,
2013-02-20 15:36:00,56.3,43.0,29.88,WSW,243,5.0,12.0,61,0.00,,,0.00,Wunderground v.1.15,2013-02-20 23:36:00,
2013-02-20 15:42:00,56.7,42.5,29.88,SW,218,5.0,12.0,59,0.00,,,0.00,Wunderground v.1.15,2013-02-20 23:42:00,
2013-02-20 15:48:00,56.6,43.3,29.88,WSW,240,6.0,12.0,61,0.00,,,0.00,Wunderground v.1.15,2013-02-20 23:48:00,
2013-02-20 15:54:00,56.1,42.8,29.88,WSW,245,6.0,12.0,61,0.00,,,0.00,Wunderground v.1.15,2013-02-20 23:54:00,
2013-02-20 16:00:00,55.7,42.5,29.88,SW,221,7.0,7.0,61,0.00,,,0.00,Wunderground v.1.15,2013-02-21 00:00:00,
2013-02-20 16:06:00,55.7,42.5,29.88,SW,229,7.0,9.0,61,0.00,,,0.00,Wunderground v.1.15,2013-02-21 00:06:00,
2013-02-20 16:12:00,55.7,42.0,29.89,West,266,8.0,8.0,60,0.00,,,0.00,Wunderground v.1.15,2013-02-21 00:12:00,
2013-02-20 16:18:00,56.0,41.9,29.89,WSW,245,7.0,8.0,59,0.00,,,0.00,Wunderground v.1.15,2013-02-21 00:18:00,
2013-02-20 16:24:00,56.2,42.1,29.89,SSW,211,6.0,8.0,59,0.00,,,0.00,Wunderground v.1.15,2013-02-21 00:24:00,
2013-02-20 16:30:00,56.1,42.4,29.89,WSW,239,6.0,6.0,60,0.00,,,0.00,Wunderground v.1.15,2013-02-21 00:30:00,
2013-02-20 16:36:00,56.2,42.1,29.89,SSW,208,5.0,13.0,59,0.00,,,0.00,Wunderground v.1.15,2013-02-21 00:36:00,
2013-02-20 16:42:00,56.3,41.3,29.89,SW,236,5.0,13.0,57,0.00,,,0.00,Wunderground v.1.15,2013-02-21 00:42:00,
2013-02-20 16:48:00,56.5,40.0,29.89,West,270,5.0,13.0,54,0.00,,,0.00,Wunderground v.1.15,2013-02-21 00:48:00,
2013-02-20 16:54:00,56.2,42.5,29.89,SW,233,5.0,13.0,60,0.00,,,0.00,Wunderground v.1.15,2013-02-21 00:54:00,
2013-02-20 17:00:00,55.8,42.1,29.90,West,263,4.0,4.0,60,0.00,,,0.00,Wunderground v.1.15,2013-02-21 01:00:00,
2013-02-20 17:06:00,55.5,42.7,29.90,SW,228,3.0,6.0,62,0.00,,,0.00,Wunderground v.1.15,2013-02-21 01:06:00,
2013-02-20 17:12:00,54.9,42.9,29.91,SW,219,4.0,4.0,64,0.00,,,0.00,Wunderground v.1.15,2013-02-21 01:12:00,
2013-02-20 17:18:00,54.7,42.3,29.91,SW,226,3.0,4.0,63,0.00,,,0.00,Wunderground v.1.15,2013-02-21 01:18:00,
2013-02-20 17:24:00,54.2,43.1,29.91,SW,229,3.0,4.0,66,0.00,,,0.00,Wunderground v.1.15,2013-02-21 01:24:00,
2013-02-20 17:30:00,53.4,43.5,29.91,SW,229,4.0,4.0,69,0.00,,,0.00,Wunderground v.1.15,2013-02-21 01:30:00,
2013-02-20 17:36:00,52.6,43.5,29.91,WSW,252,4.0,14.0,71,0.00,,,0.00,Wunderground v.1.15,2013-02-21 01:36:00,
2013-02-20 17:42:00,52.0,43.3,29.92,SW,217,4.0,14.0,72,0.00,,,0.00,Wunderground v.1.15,2013-02-21 01:42:00,
2013-02-20 17:48:00,51.5,43.1,29.92,SW,219,4.0,14.0,73,0.00,,,0.00,Wunderground v.1.15,2013-02-21 01:48:00,
2013-02-20 17:54:00,51.0,43.4,29.92,WSW,245,2.0,14.0,75,0.00,,,0.00,Wunderground v.1.15,2013-02-21 01:54:00,
2013-02-20 18:00:00,50.3,43.0,29.92,SW,233,1.0,1.0,76,0.00,,,0.00,Wunderground v.1.15,2013-02-21 02:00:00,
2013-02-20 18:06:00,49.9,42.6,29.92,WSW,248,1.0,2.0,76,0.00,,,0.00,Wunderground v.1.15,2013-02-21 02:06:00,
2013-02-20 18:12:00,49.7,42.4,29.92,SW,219,1.0,3.0,76,0.00,,,0.00,Wunderground v.1.15,2013-02-21 02:12:00,
2013-02-20 18:18:00,49.4,42.1,29.93,WSW,240,2.0,3.0,76,0.00,,,0.00,Wunderground v.1.15,2013-02-21 02:18:00,
2013-02-20 18:24:00,49.1,41.9,29.93,WSW,252,2.0,2.0,76,0.00,,,0.00,Wunderground v.1.15,2013-02-21 02:24:00,
2013-02-20 18:30:00,48.8,41.6,29.93,SE,130,1.0,1.0,76,0.00,,,0.00,Wunderground v.1.15,2013-02-21 02:30:00,
2013-02-20 18:36:00,48.1,40.9,29.94,SW,233,0.0,11.0,76,0.00,,,0.00,Wunderground v.1.15,2013-02-21 02:36:00,
2013-02-20 18:42:00,48.1,41.6,29.94,WSW,250,1.0,2.0,78,0.00,,,0.00,Wunderground v.1.15,2013-02-21 02:42:00,
2013-02-20 18:48:00,48.2,41.3,29.94,WSW,238,1.0,11.0,77,0.00,,,0.00,Wunderground v.1.15,2013-02-21 02:48:00,
2013-02-20 18:54:00,47.8,40.3,29.95,SE,129,1.0,11.0,75,0.00,,,0.00,Wunderground v.1.15,2013-02-21 02:54:00,
2013-02-20 19:00:00,47.1,39.6,29.95,ESE,117,0.0,0.0,75,0.00,,,0.00,Wunderground v.1.15,2013-02-21 03:00:00,
2013-02-20 19:06:00,46.4,38.6,29.95,ESE,117,0.0,0.0,74,0.00,,,0.00,Wunderground v.1.15,2013-02-21 03:06:00,
2013-02-20 19:12:00,45.8,37.6,29.95,ESE,117,0.0,0.0,73,0.00,,,0.00,Wunderground v.1.15,2013-02-21 03:12:00,
2013-02-20 19:18:00,45.6,36.7,29.95,SE,134,0.0,0.0,71,0.00,,,0.00,Wunderground v.1.15,2013-02-21 03:18:00,
2013-02-20 19:24:00,45.4,36.5,29.96,SE,134,0.0,0.0,71,0.00,,,0.00,Wunderground v.1.15,2013-02-21 03:24:00,
2013-02-20 19:30:00,45.1,36.3,29.96,SE,134,0.0,0.0,71,0.00,,,0.00,Wunderground v.1.15,2013-02-21 03:30:00,
2013-02-20 19:36:00,45.2,36.4,29.96,SE,134,0.0,4.0,71,0.00,,,0.00,Wunderground v.1.15,2013-02-21 03:36:00,
2013-02-20 19:42:00,45.3,36.4,29.96,SE,134,0.0,4.0,71,0.00,,,0.00,Wunderground v.1.15,2013-02-21 03:42:00,
2013-02-20 19:48:00,45.6,35.6,29.97,SE,130,0.0,4.0,68,0.00,,,0.00,Wunderground v.1.15,2013-02-21 03:48:00,
2013-02-20 19:54:00,46.4,34.1,29.97,SSE,154,0.0,4.0,62,0.00,,,0.00,Wunderground v.1.15,2013-02-21 03:54:00,
2013-02-20 20:00:00,45.9,34.8,29.97,SSE,153,0.0,0.0,65,0.00,,,0.00,Wunderground v.1.15,2013-02-21 04:00:00,
2013-02-20 20:06:00,45.2,33.7,29.97,SSE,153,0.0,0.0,64,0.00,,,0.00,Wunderground v.1.15,2013-02-21 04:06:00,
2013-02-20 20:12:00,44.7,34.4,29.98,SSE,154,0.0,0.0,67,0.00,,,0.00,Wunderground v.1.15,2013-02-21 04:12:00,
2013-02-20 20:18:00,44.2,32.4,29.98,East,86,0.0,1.0,63,0.00,,,0.00,Wunderground v.1.15,2013-02-21 04:18:00,